sensor_id;sensor_type;location;lat;lon;timestamp;pressure;altitude;pressure_sealevel;temperature;humidity
22755;BME280;11544;42.020;23.094;2022-10-16T00:02:10;97827.78;;;9.15;100.00
22755;BME280;11544;42.020;23.094;2022-10-16T00:04:35;97827.13;;;9.05;100.00
22755;BME280;11544;42.020;23.094;2022-10-16T00:07:01;97833.69;;;8.78;100.00
22755;BME280;11544;42.020;23.094;2022-10-16T00:09:27;97839.22;;;9.04;100.00
22755;BME280;11544;42.020;23.094;2022-10-16T00:11:52;97831.53;;;9.00;100.00
22755;BME280;11544;42.020;23.094;2022-10-16T00:14:18;97836.78;;;8.97;100.00
22755;BME280;11544;42.020;23.094;2022-10-16T00:16:43;97839.63;;;8.84;100.00
22755;BME280;11544;42.020;23.094;2022-10-16T00:19:10;97850.09;;;8.81;100.00
22755;BME280;11544;42.020;23.094;2022-10-16T00:21:37;97845.44;;;8.97;100.00
22755;BME280;11544;42.020;23.094;2022-10-16T00:24:05;97849.22;;;8.81;100.00
22755;BME280;11544;42.020;23.094;2022-10-16T00:26:33;97850.94;;;8.82;100.00
22755;BME280;11544;42.020;23.094;2022-10-16T00:28:59;97855.22;;;8.84;100.00
22755;BME280;11544;42.020;23.094;2022-10-16T00:31:25;97854.16;;;8.96;100.00
22755;BME280;11544;42.020;23.094;2022-10-16T00:33:51;97858.28;;;8.60;100.00
22755;BME280;11544;42.020;23.094;2022-10-16T00:36:20;97852.88;;;8.69;100.00
22755;BME280;11544;42.020;23.094;2022-10-16T00:38:46;97849.72;;;8.53;100.00
22755;BME280;11544;42.020;23.094;2022-10-16T00:41:14;97859.88;;;8.67;100.00
22755;BME280;11544;42.020;23.094;2022-10-16T00:46:18;97854.28;;;8.36;100.00
22755;BME280;11544;42.020;23.094;2022-10-16T00:49:12;97875.91;;;8.38;100.00
22755;BME280;11544;42.020;23.094;2022-10-16T00:51:42;97877.41;;;8.53;100.00
22755;BME280;11544;42.020;23.094;2022-10-16T00:54:13;97876.63;;;8.49;100.00
22755;BME280;11544;42.020;23.094;2022-10-16T00:56:40;97888.63;;;8.58;100.00
22755;BME280;11544;42.020;23.094;2022-10-16T00:59:14;97884.91;;;8.71;100.00
22755;BME280;11544;42.020;23.094;2022-10-16T01:01:40;97891.88;;;8.69;100.00
22755;BME280;11544;42.020;23.094;2022-10-16T01:04:06;97895.72;;;8.48;100.00
22755;BME280;11544;42.020;23.094;2022-10-16T01:22:47;97901.22;;;8.25;100.00
22755;BME280;11544;42.020;23.094;2022-10-16T01:25:30;97896.88;;;8.25;100.00
22755;BME280;11544;42.020;23.094;2022-10-16T01:28:03;97896.91;;;8.24;100.00
22755;BME280;11544;42.020;23.094;2022-10-16T01:30:32;97892.75;;;8.12;100.00
22755;BME280;11544;42.020;23.094;2022-10-16T01:33:03;97907.09;;;8.38;100.00
22755;BME280;11544;42.020;23.094;2022-10-16T01:35:39;97901.25;;;8.23;100.00
22755;BME280;11544;42.020;23.094;2022-10-16T01:40:34;97905.19;;;7.92;100.00
22755;BME280;11544;42.020;23.094;2022-10-16T01:43:31;97906.31;;;8.33;100.00
22755;BME280;11544;42.020;23.094;2022-10-16T01:46:00;97915.69;;;8.43;100.00
22755;BME280;11544;42.020;23.094;2022-10-16T01:48:26;97906.91;;;8.52;100.00
22755;BME280;11544;42.020;23.094;2022-10-16T01:50:59;97909.63;;;8.42;100.00
22755;BME280;11544;42.020;23.094;2022-10-16T01:53:26;97907.66;;;7.99;100.00
22755;BME280;11544;42.020;23.094;2022-10-16T01:55:54;97908.97;;;8.26;100.00
22755;BME280;11544;42.020;23.094;2022-10-16T01:58:23;97906.38;;;8.28;100.00
22755;BME280;11544;42.020;23.094;2022-10-16T02:00:50;97896.09;;;8.20;100.00
22755;BME280;11544;42.020;23.094;2022-10-16T02:03:19;97902.50;;;7.96;100.00
22755;BME280;11544;42.020;23.094;2022-10-16T02:05:54;97905.84;;;8.03;100.00
22755;BME280;11544;42.020;23.094;2022-10-16T02:08:25;97905.84;;;8.06;100.00
22755;BME280;11544;42.020;23.094;2022-10-16T02:10:57;97905.00;;;8.02;100.00
22755;BME280;11544;42.020;23.094;2022-10-16T02:13:55;97916.47;;;7.89;100.00
22755;BME280;11544;42.020;23.094;2022-10-16T02:16:33;97915.47;;;7.28;100.00
22755;BME280;11544;42.020;23.094;2022-10-16T02:18:59;97919.13;;;7.83;100.00
22755;BME280;11544;42.020;23.094;2022-10-16T02:21:28;97921.59;;;7.91;100.00
22755;BME280;11544;42.020;23.094;2022-10-16T02:26:44;97925.44;;;7.62;100.00
22755;BME280;11544;42.020;23.094;2022-10-16T02:29:16;97928.84;;;7.67;100.00
22755;BME280;11544;42.020;23.094;2022-10-16T02:31:47;97927.13;;;7.66;100.00
22755;BME280;11544;42.020;23.094;2022-10-16T02:34:15;97930.72;;;7.54;100.00
22755;BME280;11544;42.020;23.094;2022-10-16T02:36:42;97940.91;;;7.70;100.00
22755;BME280;11544;42.020;23.094;2022-10-16T02:39:10;97944.56;;;7.56;100.00
22755;BME280;11544;42.020;23.094;2022-10-16T02:41:36;97947.72;;;7.78;100.00
22755;BME280;11544;42.020;23.094;2022-10-16T02:44:02;97945.41;;;7.58;100.00
22755;BME280;11544;42.020;23.094;2022-10-16T02:46:27;97955.03;;;7.46;100.00
22755;BME280;11544;42.020;23.094;2022-10-16T02:48:53;97952.69;;;7.97;100.00
22755;BME280;11544;42.020;23.094;2022-10-16T02:51:19;97955.22;;;7.29;100.00
22755;BME280;11544;42.020;23.094;2022-10-16T02:53:45;97954.00;;;7.62;100.00
22755;BME280;11544;42.020;23.094;2022-10-16T02:56:10;97951.88;;;7.20;100.00
22755;BME280;11544;42.020;23.094;2022-10-16T02:58:36;97953.56;;;7.20;100.00
22755;BME280;11544;42.020;23.094;2022-10-16T03:01:02;97958.72;;;7.28;100.00
22755;BME280;11544;42.020;23.094;2022-10-16T03:03:27;97959.78;;;7.05;100.00
22755;BME280;11544;42.020;23.094;2022-10-16T03:05:53;97958.72;;;7.25;100.00
22755;BME280;11544;42.020;23.094;2022-10-16T03:08:19;97960.97;;;7.55;100.00
22755;BME280;11544;42.020;23.094;2022-10-16T03:10:49;97957.53;;;7.55;100.00
22755;BME280;11544;42.020;23.094;2022-10-16T03:13:15;97970.63;;;7.44;100.00
22755;BME280;11544;42.020;23.094;2022-10-16T03:15:40;97969.84;;;7.34;100.00
22755;BME280;11544;42.020;23.094;2022-10-16T03:18:06;97973.50;;;7.13;100.00
22755;BME280;11544;42.020;23.094;2022-10-16T03:20:32;97982.50;;;6.78;100.00
22755;BME280;11544;42.020;23.094;2022-10-16T03:22:58;97984.94;;;6.94;100.00
22755;BME280;11544;42.020;23.094;2022-10-16T03:25:23;97972.78;;;7.00;100.00
22755;BME280;11544;42.020;23.094;2022-10-16T03:27:49;97969.13;;;7.21;100.00
22755;BME280;11544;42.020;23.094;2022-10-16T03:30:15;97979.72;;;7.02;100.00
22755;BME280;11544;42.020;23.094;2022-10-16T03:32:43;97966.63;;;7.12;100.00
22755;BME280;11544;42.020;23.094;2022-10-16T03:35:09;97970.63;;;7.44;100.00
22755;BME280;11544;42.020;23.094;2022-10-16T03:37:35;97965.47;;;7.41;100.00
22755;BME280;11544;42.020;23.094;2022-10-16T03:40:03;97970.78;;;7.30;100.00
22755;BME280;11544;42.020;23.094;2022-10-16T03:42:29;97968.31;;;7.13;100.00
22755;BME280;11544;42.020;23.094;2022-10-16T03:44:54;97970.13;;;7.08;100.00
22755;BME280;11544;42.020;23.094;2022-10-16T03:47:20;97962.13;;;7.31;100.00
22755;BME280;11544;42.020;23.094;2022-10-16T03:49:49;97967.22;;;7.39;100.00
22755;BME280;11544;42.020;23.094;2022-10-16T03:52:14;97977.19;;;6.89;100.00
22755;BME280;11544;42.020;23.094;2022-10-16T03:54:40;97974.53;;;6.98;100.00
22755;BME280;11544;42.020;23.094;2022-10-16T03:57:07;97974.59;;;6.92;100.00
22755;BME280;11544;42.020;23.094;2022-10-16T03:59:32;97970.84;;;7.24;100.00
22755;BME280;11544;42.020;23.094;2022-10-16T04:01:58;97973.69;;;6.98;100.00
22755;BME280;11544;42.020;23.094;2022-10-16T04:04:24;97968.44;;;7.04;100.00
22755;BME280;11544;42.020;23.094;2022-10-16T04:06:50;97976.50;;;6.72;100.00
22755;BME280;11544;42.020;23.094;2022-10-16T04:09:16;97973.97;;;6.61;100.00
22755;BME280;11544;42.020;23.094;2022-10-16T04:11:42;97981.72;;;6.61;100.00
22755;BME280;11544;42.020;23.094;2022-10-16T04:14:08;97980.78;;;6.73;100.00
22755;BME280;11544;42.020;23.094;2022-10-16T04:16:34;97984.88;;;7.02;100.00
22755;BME280;11544;42.020;23.094;2022-10-16T04:18:59;97975.13;;;7.28;100.00
22755;BME280;11544;42.020;23.094;2022-10-16T04:21:25;97969.94;;;7.25;100.00
22755;BME280;11544;42.020;23.094;2022-10-16T04:23:51;97968.50;;;6.98;100.00
22755;BME280;11544;42.020;23.094;2022-10-16T04:26:16;97973.81;;;6.81;100.00
22755;BME280;11544;42.020;23.094;2022-10-16T04:28:43;97973.63;;;7.01;100.00
22755;BME280;11544;42.020;23.094;2022-10-16T04:31:08;97972.03;;;6.88;100.00
22755;BME280;11544;42.020;23.094;2022-10-16T04:33:34;97974.88;;;6.55;100.00
22755;BME280;11544;42.020;23.094;2022-10-16T04:36:01;97976.22;;;7.03;100.00
22755;BME280;11544;42.020;23.094;2022-10-16T04:38:27;97976.50;;;6.70;100.00
22755;BME280;11544;42.020;23.094;2022-10-16T04:40:53;97978.91;;;6.95;100.00
22755;BME280;11544;42.020;23.094;2022-10-16T04:43:19;97978.19;;;6.76;100.00
22755;BME280;11544;42.020;23.094;2022-10-16T04:45:45;97982.38;;;6.92;100.00
22755;BME280;11544;42.020;23.094;2022-10-16T04:48:11;97979.91;;;6.78;100.00
22755;BME280;11544;42.020;23.094;2022-10-16T04:50:37;97974.03;;;6.55;100.00
22755;BME280;11544;42.020;23.094;2022-10-16T04:53:06;97968.75;;;6.67;100.00
22755;BME280;11544;42.020;23.094;2022-10-16T04:55:32;97981.91;;;6.38;100.00
22755;BME280;11544;42.020;23.094;2022-10-16T04:57:58;97984.28;;;6.66;100.00
22755;BME280;11544;42.020;23.094;2022-10-16T05:00:23;97978.84;;;6.96;100.00
22755;BME280;11544;42.020;23.094;2022-10-16T05:02:50;97979.97;;;6.68;100.00
22755;BME280;11544;42.020;23.094;2022-10-16T05:05:16;97994.69;;;6.63;100.00
22755;BME280;11544;42.020;23.094;2022-10-16T05:07:42;97987.69;;;6.72;100.00
22755;BME280;11544;42.020;23.094;2022-10-16T05:10:08;97998.19;;;6.55;100.00
22755;BME280;11544;42.020;23.094;2022-10-16T05:12:33;97999.03;;;6.59;100.00
22755;BME280;11544;42.020;23.094;2022-10-16T05:14:59;97999.09;;;6.48;100.00
22755;BME280;11544;42.020;23.094;2022-10-16T05:17:26;98005.06;;;6.63;100.00
22755;BME280;11544;42.020;23.094;2022-10-16T05:19:51;98005.69;;;6.91;100.00
22755;BME280;11544;42.020;23.094;2022-10-16T05:22:17;98004.91;;;6.81;100.00
22755;BME280;11544;42.020;23.094;2022-10-16T05:24:43;98011.94;;;6.65;100.00
22755;BME280;11544;42.020;23.094;2022-10-16T05:27:10;98010.22;;;6.61;100.00
22755;BME280;11544;42.020;23.094;2022-10-16T05:29:36;98006.44;;;7.05;100.00
22755;BME280;11544;42.020;23.094;2022-10-16T05:32:02;98014.25;;;7.02;100.00
22755;BME280;11544;42.020;23.094;2022-10-16T05:34:28;98017.72;;;7.89;100.00
22755;BME280;11544;42.020;23.094;2022-10-16T05:36:53;98000.16;;;9.24;100.00
22755;BME280;11544;42.020;23.094;2022-10-16T05:39:19;97997.94;;;9.49;100.00
22755;BME280;11544;42.020;23.094;2022-10-16T05:41:45;97993.81;;;9.84;100.00
22755;BME280;11544;42.020;23.094;2022-10-16T05:44:11;97986.16;;;9.78;95.62
22755;BME280;11544;42.020;23.094;2022-10-16T05:46:36;97990.94;;;9.98;94.21
22755;BME280;11544;42.020;23.094;2022-10-16T05:49:02;98003.22;;;8.95;97.94
22755;BME280;11544;42.020;23.094;2022-10-16T05:51:28;97995.22;;;10.43;98.23
22755;BME280;11544;42.020;23.094;2022-10-16T05:53:55;97996.84;;;9.63;95.75
22755;BME280;11544;42.020;23.094;2022-10-16T05:56:22;98005.56;;;9.62;96.70
22755;BME280;11544;42.020;23.094;2022-10-16T05:58:48;98004.78;;;9.07;98.28
22755;BME280;11544;42.020;23.094;2022-10-16T06:01:17;98012.34;;;10.12;96.29
22755;BME280;11544;42.020;23.094;2022-10-16T06:04:06;98005.66;;;9.56;94.96
22755;BME280;11544;42.020;23.094;2022-10-16T06:06:36;98002.88;;;10.08;95.17
22755;BME280;11544;42.020;23.094;2022-10-16T06:09:03;98007.47;;;11.14;92.30
22755;BME280;11544;42.020;23.094;2022-10-16T06:11:31;98012.78;;;10.73;90.66
22755;BME280;11544;42.020;23.094;2022-10-16T06:13:59;98015.44;;;12.65;93.87
22755;BME280;11544;42.020;23.094;2022-10-16T06:16:27;98007.34;;;12.73;84.63
22755;BME280;11544;42.020;23.094;2022-10-16T06:18:54;98010.47;;;11.98;83.02
22755;BME280;11544;42.020;23.094;2022-10-16T06:21:23;98014.44;;;12.12;82.32
22755;BME280;11544;42.020;23.094;2022-10-16T06:23:53;98017.00;;;12.13;83.69
22755;BME280;11544;42.020;23.094;2022-10-16T06:26:22;98015.69;;;12.58;79.25
22755;BME280;11544;42.020;23.094;2022-10-16T06:28:51;98018.16;;;11.72;80.30
22755;BME280;11544;42.020;23.094;2022-10-16T06:31:17;98031.25;;;11.01;81.61
22755;BME280;11544;42.020;23.094;2022-10-16T06:33:43;98041.25;;;11.20;82.00
22755;BME280;11544;42.020;23.094;2022-10-16T06:36:15;98043.97;;;10.78;82.94
22755;BME280;11544;42.020;23.094;2022-10-16T06:38:49;98043.75;;;12.23;80.34
22755;BME280;11544;42.020;23.094;2022-10-16T06:41:18;98037.91;;;12.13;78.65
22755;BME280;11544;42.020;23.094;2022-10-16T06:43:47;98044.94;;;12.11;78.50
22755;BME280;11544;42.020;23.094;2022-10-16T06:46:15;98047.19;;;12.55;78.67
22755;BME280;11544;42.020;23.094;2022-10-16T06:48:55;98051.03;;;11.79;77.65
22755;BME280;11544;42.020;23.094;2022-10-16T06:51:22;98049.06;;;12.49;76.69
22755;BME280;11544;42.020;23.094;2022-10-16T06:54:11;98045.63;;;13.04;75.30
22755;BME280;11544;42.020;23.094;2022-10-16T06:56:50;98042.66;;;12.30;74.59
22755;BME280;11544;42.020;23.094;2022-10-16T06:59:33;98050.53;;;11.64;77.91
22755;BME280;11544;42.020;23.094;2022-10-16T07:01:59;98038.22;;;13.45;73.90
22755;BME280;11544;42.020;23.094;2022-10-16T07:04:26;98049.63;;;13.16;74.03
22755;BME280;11544;42.020;23.094;2022-10-16T07:06:53;98052.28;;;12.87;74.49
22755;BME280;11544;42.020;23.094;2022-10-16T07:09:20;98045.00;;;12.10;76.60
22755;BME280;11544;42.020;23.094;2022-10-16T07:12:02;98050.50;;;12.30;76.67
22755;BME280;11544;42.020;23.094;2022-10-16T07:14:29;98060.69;;;12.39;76.12
22755;BME280;11544;42.020;23.094;2022-10-16T07:16:55;98057.88;;;13.31;75.52
22755;BME280;11544;42.020;23.094;2022-10-16T07:19:21;98048.59;;;13.98;70.36
22755;BME280;11544;42.020;23.094;2022-10-16T07:21:46;98056.28;;;12.99;74.50
22755;BME280;11544;42.020;23.094;2022-10-16T07:24:14;98051.41;;;13.68;71.28
22755;BME280;11544;42.020;23.094;2022-10-16T07:26:42;98046.09;;;13.45;72.33
22755;BME280;11544;42.020;23.094;2022-10-16T07:29:14;98051.19;;;13.21;73.23
22755;BME280;11544;42.020;23.094;2022-10-16T07:31:41;98048.56;;;14.00;72.41
22755;BME280;11544;42.020;23.094;2022-10-16T07:34:07;98044.63;;;14.35;68.22
22755;BME280;11544;42.020;23.094;2022-10-16T07:36:33;98042.06;;;14.10;69.02
22755;BME280;11544;42.020;23.094;2022-10-16T07:38:59;98053.81;;;12.66;71.57
22755;BME280;11544;42.020;23.094;2022-10-16T07:41:25;98040.88;;;14.42;70.31
22755;BME280;11544;42.020;23.094;2022-10-16T07:43:52;98045.28;;;14.65;66.41
22755;BME280;11544;42.020;23.094;2022-10-16T07:46:19;98037.31;;;14.67;66.25
22755;BME280;11544;42.020;23.094;2022-10-16T07:48:45;98037.41;;;14.42;67.07
22755;BME280;11544;42.020;23.094;2022-10-16T07:51:16;98041.34;;;13.01;68.34
22755;BME280;11544;42.020;23.094;2022-10-16T07:53:42;98052.22;;;12.31;73.67
22755;BME280;11544;42.020;23.094;2022-10-16T07:56:08;98052.25;;;13.16;73.60
22755;BME280;11544;42.020;23.094;2022-10-16T07:58:35;98047.88;;;14.18;71.64
22755;BME280;11544;42.020;23.094;2022-10-16T08:01:08;98040.72;;;14.70;69.36
22755;BME280;11544;42.020;23.094;2022-10-16T08:03:46;98030.38;;;14.66;68.12
22755;BME280;11544;42.020;23.094;2022-10-16T08:06:12;98046.50;;;13.84;69.18
22755;BME280;11544;42.020;23.094;2022-10-16T08:08:38;98029.88;;;14.56;68.09
22755;BME280;11544;42.020;23.094;2022-10-16T08:11:04;98030.25;;;14.69;67.99
22755;BME280;11544;42.020;23.094;2022-10-16T08:13:30;98040.41;;;14.78;67.60
22755;BME280;11544;42.020;23.094;2022-10-16T08:15:56;98026.34;;;14.57;68.42
22755;BME280;11544;42.020;23.094;2022-10-16T08:18:22;98029.97;;;14.98;69.11
22755;BME280;11544;42.020;23.094;2022-10-16T08:20:54;98030.59;;;15.05;68.62
22755;BME280;11544;42.020;23.094;2022-10-16T08:23:20;98023.44;;;14.65;68.07
22755;BME280;11544;42.020;23.094;2022-10-16T08:25:45;98019.16;;;15.06;68.26
22755;BME280;11544;42.020;23.094;2022-10-16T08:28:12;98020.44;;;15.59;66.77
22755;BME280;11544;42.020;23.094;2022-10-16T08:30:40;98017.88;;;14.94;67.58
22755;BME280;11544;42.020;23.094;2022-10-16T08:33:12;98011.66;;;15.60;65.95
22755;BME280;11544;42.020;23.094;2022-10-16T08:35:37;98010.81;;;15.80;65.75
22755;BME280;11544;42.020;23.094;2022-10-16T08:38:04;98013.00;;;15.91;65.42
22755;BME280;11544;42.020;23.094;2022-10-16T08:40:36;98017.25;;;15.52;66.66
22755;BME280;11544;42.020;23.094;2022-10-16T08:48:51;98005.63;;;16.56;63.43
22755;BME280;11544;42.020;23.094;2022-10-16T08:51:26;98010.03;;;16.74;63.14
22755;BME280;11544;42.020;23.094;2022-10-16T08:53:58;98000.81;;;16.46;62.56
22755;BME280;11544;42.020;23.094;2022-10-16T08:59:16;98003.22;;;16.51;62.74
22755;BME280;11544;42.020;23.094;2022-10-16T09:01:47;97994.88;;;16.60;62.83
22755;BME280;11544;42.020;23.094;2022-10-16T09:07:54;97993.59;;;16.69;61.62
22755;BME280;11544;42.020;23.094;2022-10-16T09:13:29;97990.03;;;17.60;58.47
22755;BME280;11544;42.020;23.094;2022-10-16T09:16:34;97984.06;;;17.39;57.46
22755;BME280;11544;42.020;23.094;2022-10-16T09:21:45;97979.53;;;17.93;55.43
22755;BME280;11544;42.020;23.094;2022-10-16T09:24:17;97982.59;;;18.02;55.93
22755;BME280;11544;42.020;23.094;2022-10-16T09:26:45;97975.16;;;17.92;55.96
22755;BME280;11544;42.020;23.094;2022-10-16T09:29:15;97975.88;;;17.61;55.95
22755;BME280;11544;42.020;23.094;2022-10-16T09:31:42;97976.50;;;17.66;55.99
22755;BME280;11544;42.020;23.094;2022-10-16T09:34:24;97973.00;;;17.83;55.22
22755;BME280;11544;42.020;23.094;2022-10-16T09:36:57;97963.13;;;17.53;56.00
22755;BME280;11544;42.020;23.094;2022-10-16T09:39:23;97969.63;;;17.46;55.15
22755;BME280;11544;42.020;23.094;2022-10-16T09:41:50;97964.22;;;18.00;53.30
22755;BME280;11544;42.020;23.094;2022-10-16T09:44:29;97961.16;;;18.08;53.94
22755;BME280;11544;42.020;23.094;2022-10-16T09:47:14;97953.63;;;17.84;54.00
22755;BME280;11544;42.020;23.094;2022-10-16T09:50:25;97957.44;;;18.12;53.41
22755;BME280;11544;42.020;23.094;2022-10-16T09:53:08;97951.16;;;17.81;53.62
22755;BME280;11544;42.020;23.094;2022-10-16T09:55:36;97947.28;;;18.04;56.36
22755;BME280;11544;42.020;23.094;2022-10-16T09:58:01;97941.56;;;17.78;54.49
22755;BME280;11544;42.020;23.094;2022-10-16T10:00:27;97941.22;;;17.86;53.45
22755;BME280;11544;42.020;23.094;2022-10-16T10:02:54;97933.53;;;18.15;53.23
22755;BME280;11544;42.020;23.094;2022-10-16T10:05:21;97936.66;;;18.37;52.28
22755;BME280;11544;42.020;23.094;2022-10-16T10:07:54;97934.81;;;18.24;52.42
22755;BME280;11544;42.020;23.094;2022-10-16T10:10:23;97922.09;;;18.62;52.45
22755;BME280;11544;42.020;23.094;2022-10-16T10:12:49;97923.47;;;18.69;50.53
22755;BME280;11544;42.020;23.094;2022-10-16T10:15:15;97913.94;;;18.03;51.21
22755;BME280;11544;42.020;23.094;2022-10-16T10:17:54;97913.59;;;18.25;51.59
22755;BME280;11544;42.020;23.094;2022-10-16T10:20:34;97912.16;;;18.35;51.50
22755;BME280;11544;42.020;23.094;2022-10-16T10:23:13;97907.38;;;18.58;51.15
22755;BME280;11544;42.020;23.094;2022-10-16T10:26:07;97902.97;;;19.04;49.79
22755;BME280;11544;42.020;23.094;2022-10-16T10:31:29;97906.19;;;18.32;49.85
22755;BME280;11544;42.020;23.094;2022-10-16T10:36:43;97901.88;;;18.93;49.52
22755;BME280;11544;42.020;23.094;2022-10-16T10:47:35;97899.44;;;18.74;47.10
22755;BME280;11544;42.020;23.094;2022-10-16T10:56:17;97873.94;;;18.27;48.00
22755;BME280;11544;42.020;23.094;2022-10-16T10:58:58;97875.59;;;18.59;48.18
22755;BME280;11544;42.020;23.094;2022-10-16T11:04:30;97874.28;;;18.36;48.47
22755;BME280;11544;42.020;23.094;2022-10-16T11:07:04;97871.25;;;18.58;47.09
22755;BME280;11544;42.020;23.094;2022-10-16T11:09:37;97864.97;;;18.75;47.55
22755;BME280;11544;42.020;23.094;2022-10-16T11:12:14;97866.59;;;18.94;46.58
22755;BME280;11544;42.020;23.094;2022-10-16T11:17:38;97856.59;;;18.99;46.49
22755;BME280;11544;42.020;23.094;2022-10-16T11:20:21;97855.63;;;19.16;45.33
22755;BME280;11544;42.020;23.094;2022-10-16T11:22:55;97855.25;;;19.36;46.12
22755;BME280;11544;42.020;23.094;2022-10-16T11:25:28;97846.88;;;19.73;44.94
22755;BME280;11544;42.020;23.094;2022-10-16T11:30:39;97839.13;;;18.66;46.36
22755;BME280;11544;42.020;23.094;2022-10-16T11:35:53;97839.38;;;19.22;45.15
22755;BME280;11544;42.020;23.094;2022-10-16T11:40:54;97830.31;;;19.26;45.04
22755;BME280;11544;42.020;23.094;2022-10-16T11:43:32;97826.91;;;19.24;45.07
22755;BME280;11544;42.020;23.094;2022-10-16T11:46:07;97822.75;;;19.49;44.59
22755;BME280;11544;42.020;23.094;2022-10-16T11:51:25;97817.03;;;19.42;45.00
22755;BME280;11544;42.020;23.094;2022-10-16T11:54:17;97817.31;;;19.52;44.61
22755;BME280;11544;42.020;23.094;2022-10-16T11:56:48;97812.59;;;19.28;44.92
22755;BME280;11544;42.020;23.094;2022-10-16T11:59:31;97816.06;;;19.29;45.24
22755;BME280;11544;42.020;23.094;2022-10-16T12:04:56;97813.44;;;19.72;45.59
22755;BME280;11544;42.020;23.094;2022-10-16T12:07:33;97806.16;;;19.75;45.54
22755;BME280;11544;42.020;23.094;2022-10-16T12:10:26;97805.19;;;19.91;45.23
22755;BME280;11544;42.020;23.094;2022-10-16T12:12:52;97807.69;;;20.06;45.41
22755;BME280;11544;42.020;23.094;2022-10-16T12:17:49;97797.94;;;19.80;44.34
22755;BME280;11544;42.020;23.094;2022-10-16T12:20:31;97798.41;;;19.72;45.52
22755;BME280;11544;42.020;23.094;2022-10-16T12:23:01;97799.13;;;19.88;44.24
22755;BME280;11544;42.020;23.094;2022-10-16T12:25:36;97798.91;;;20.06;44.01
22755;BME280;11544;42.020;23.094;2022-10-16T12:30:42;97808.31;;;19.83;45.02
22755;BME280;11544;42.020;23.094;2022-10-16T12:33:22;97803.00;;;19.97;44.40
22755;BME280;11544;42.020;23.094;2022-10-16T12:35:49;97800.22;;;19.43;43.96
22755;BME280;11544;42.020;23.094;2022-10-16T12:38:27;97795.00;;;19.56;44.20
22755;BME280;11544;42.020;23.094;2022-10-16T12:40:59;97794.41;;;19.79;43.29
22755;BME280;11544;42.020;23.094;2022-10-16T12:48:36;97785.41;;;20.23;43.38
22755;BME280;11544;42.020;23.094;2022-10-16T12:53:35;97782.81;;;20.09;43.18
22755;BME280;11544;42.020;23.094;2022-10-16T13:04:47;97781.13;;;20.35;42.77
22755;BME280;11544;42.020;23.094;2022-10-16T13:07:16;97784.88;;;20.18;43.26
22755;BME280;11544;42.020;23.094;2022-10-16T13:10:13;97786.97;;;20.13;43.92
22755;BME280;11544;42.020;23.094;2022-10-16T13:21:00;97788.84;;;19.84;43.41
22755;BME280;11544;42.020;23.094;2022-10-16T13:23:53;97789.94;;;20.08;41.74
22755;BME280;11544;42.020;23.094;2022-10-16T13:26:49;97790.84;;;19.80;43.33
22755;BME280;11544;42.020;23.094;2022-10-16T13:29:19;97793.22;;;20.12;43.20
22755;BME280;11544;42.020;23.094;2022-10-16T13:31:46;97782.31;;;20.17;43.79
22755;BME280;11544;42.020;23.094;2022-10-16T13:34:20;97786.91;;;20.00;43.42
22755;BME280;11544;42.020;23.094;2022-10-16T13:36:50;97787.31;;;19.94;42.72
22755;BME280;11544;42.020;23.094;2022-10-16T13:41:45;97772.75;;;20.01;40.26
22755;BME280;11544;42.020;23.094;2022-10-16T13:44:17;97786.56;;;19.92;40.69
22755;BME280;11544;42.020;23.094;2022-10-16T13:46:44;97781.47;;;19.89;41.25
22755;BME280;11544;42.020;23.094;2022-10-16T13:49:16;97789.34;;;19.76;41.09
22755;BME280;11544;42.020;23.094;2022-10-16T13:51:54;97781.88;;;19.83;40.78
22755;BME280;11544;42.020;23.094;2022-10-16T13:54:20;97780.69;;;20.01;39.69
22755;BME280;11544;42.020;23.094;2022-10-16T13:56:48;97782.06;;;20.07;40.62
22755;BME280;11544;42.020;23.094;2022-10-16T13:59:26;97781.38;;;19.91;40.89
22755;BME280;11544;42.020;23.094;2022-10-16T14:01:55;97776.50;;;19.84;41.75
22755;BME280;11544;42.020;23.094;2022-10-16T14:04:22;97784.59;;;19.81;41.84
22755;BME280;11544;42.020;23.094;2022-10-16T14:06:50;97786.34;;;19.68;42.13
22755;BME280;11544;42.020;23.094;2022-10-16T14:09:29;97791.69;;;19.66;40.96
22755;BME280;11544;42.020;23.094;2022-10-16T14:12:03;97787.81;;;19.72;40.54
22755;BME280;11544;42.020;23.094;2022-10-16T14:14:44;97783.41;;;20.00;40.00
22755;BME280;11544;42.020;23.094;2022-10-16T14:17:18;97790.09;;;19.78;40.58
22755;BME280;11544;42.020;23.094;2022-10-16T14:19:50;97791.50;;;19.70;40.83
22755;BME280;11544;42.020;23.094;2022-10-16T14:22:37;97784.53;;;19.69;41.92
22755;BME280;11544;42.020;23.094;2022-10-16T14:25:27;97785.94;;;19.74;40.58
22755;BME280;11544;42.020;23.094;2022-10-16T14:30:49;97793.00;;;19.59;41.26
22755;BME280;11544;42.020;23.094;2022-10-16T14:33:33;97789.25;;;19.49;41.81
22755;BME280;11544;42.020;23.094;2022-10-16T14:36:12;97790.38;;;19.59;40.33
22755;BME280;11544;42.020;23.094;2022-10-16T14:38:40;97796.31;;;19.63;39.86
22755;BME280;11544;42.020;23.094;2022-10-16T14:41:07;97795.19;;;19.53;40.95
22755;BME280;11544;42.020;23.094;2022-10-16T14:43:35;97795.59;;;19.46;41.26
22755;BME280;11544;42.020;23.094;2022-10-16T14:46:03;97792.84;;;19.48;40.84
22755;BME280;11544;42.020;23.094;2022-10-16T14:48:30;97796.03;;;19.53;41.06
22755;BME280;11544;42.020;23.094;2022-10-16T14:50:56;97799.25;;;19.44;41.38
22755;BME280;11544;42.020;23.094;2022-10-16T14:53:22;97799.09;;;19.33;41.21
22755;BME280;11544;42.020;23.094;2022-10-16T14:55:48;97803.81;;;19.28;41.29
22755;BME280;11544;42.020;23.094;2022-10-16T14:58:23;97804.38;;;19.18;41.06
22755;BME280;11544;42.020;23.094;2022-10-16T15:00:50;97801.03;;;19.15;40.33
22755;BME280;11544;42.020;23.094;2022-10-16T15:03:16;97801.22;;;18.97;40.92